createdAt,value
2022-12-04T00:00:49.586Z,13.20
2022-12-04T00:01:49.283Z,12.90
2022-12-04T00:02:49.646Z,14.00
2022-12-04T00:03:49.616Z,13.60
2022-12-04T00:04:49.607Z,13.40
2022-12-04T00:05:49.636Z,14.20
2022-12-04T00:06:51.686Z,13.60
2022-12-04T00:07:49.216Z,14.00
2022-12-04T00:08:49.182Z,13.60
2022-12-04T00:09:49.594Z,13.20
2022-12-04T00:10:49.174Z,13.70
2022-12-04T00:11:49.720Z,13.30
2022-12-04T00:12:49.161Z,14.00
2022-12-04T00:13:49.152Z,13.60
2022-12-04T00:15:23.485Z,13.60
2022-12-04T00:15:49.287Z,13.50
2022-12-04T00:16:49.239Z,12.80
2022-12-04T00:17:49.188Z,13.20
2022-12-04T00:18:49.196Z,13.40
2022-12-04T00:19:49.190Z,14.10
2022-12-04T00:20:49.200Z,13.40
2022-12-04T00:21:49.261Z,13.40
2022-12-04T00:22:49.089Z,13.90
2022-12-04T00:23:49.088Z,13.50
2022-12-04T00:24:49.088Z,13.60
2022-12-04T00:25:49.079Z,12.90
2022-12-04T00:26:49.087Z,13.60
2022-12-04T00:27:49.095Z,13.20
2022-12-04T00:28:49.070Z,13.20
2022-12-04T00:31:15.063Z,12.90
2022-12-04T00:32:15.136Z,13.30
2022-12-04T00:33:15.003Z,13.40
2022-12-04T00:34:15.013Z,13.40
2022-12-04T00:35:15.026Z,12.60
2022-12-04T00:36:14.999Z,13.90
2022-12-04T00:37:15.051Z,13.60
2022-12-04T00:38:15.060Z,13.20
2022-12-04T00:39:15.080Z,13.00
2022-12-04T00:40:15.090Z,13.10
2022-12-04T00:41:15.200Z,13.40
2022-12-04T00:42:15.114Z,13.20
2022-12-04T00:43:14.999Z,13.60
2022-12-04T00:44:15.010Z,13.10
2022-12-04T00:45:15.021Z,13.10
2022-12-04T00:46:15.214Z,12.70
2022-12-04T00:47:15.181Z,13.10
2022-12-04T00:48:15.189Z,13.60
2022-12-04T00:49:15.206Z,13.70
2022-12-04T00:50:14.901Z,12.90
2022-12-04T00:51:15.225Z,13.80
2022-12-04T00:52:14.891Z,12.30
2022-12-04T00:53:14.921Z,12.90
2022-12-04T00:54:14.878Z,13.90
2022-12-04T00:55:15.089Z,13.50
2022-12-04T00:56:15.096Z,13.50
2022-12-04T00:57:14.902Z,14.00
2022-12-04T00:58:14.901Z,13.00
2022-12-04T00:59:15.326Z,13.00
2022-12-04T01:00:14.913Z,12.90
2022-12-04T01:01:14.900Z,13.10
2022-12-04T01:02:15.351Z,13.00
2022-12-04T01:03:14.988Z,12.10
2022-12-04T01:04:14.806Z,13.70
2022-12-04T01:05:14.797Z,13.30
2022-12-04T01:06:14.824Z,12.70
2022-12-04T01:07:14.963Z,13.10
2022-12-04T01:08:15.043Z,12.50
2022-12-04T01:09:14.781Z,12.90
2022-12-04T01:10:14.763Z,13.00
2022-12-04T01:11:14.789Z,12.60
2022-12-04T01:12:20.333Z,13.20
2022-12-04T01:13:14.741Z,12.60
2022-12-04T01:14:14.730Z,12.20
2022-12-04T01:15:14.740Z,13.20
2022-12-04T01:16:14.788Z,13.00
2022-12-04T01:17:14.720Z,12.90
2022-12-04T01:18:14.758Z,12.30
2022-12-04T01:19:14.838Z,12.60
2022-12-04T01:20:14.698Z,13.20
2022-12-04T01:21:14.857Z,12.30
2022-12-04T01:22:14.690Z,12.00
2022-12-04T01:23:14.686Z,12.50
2022-12-04T01:24:14.668Z,13.80
2022-12-04T01:25:14.689Z,12.70
2022-12-04T01:26:14.678Z,12.60
2022-12-04T01:27:14.687Z,12.60
2022-12-04T01:28:14.646Z,12.90
2022-12-04T01:29:14.657Z,13.00
2022-12-04T01:30:14.736Z,13.10
2022-12-04T01:31:15.061Z,13.50
2022-12-04T01:32:14.677Z,13.50
2022-12-04T01:33:14.628Z,14.40
2022-12-04T01:34:14.994Z,13.50
2022-12-04T01:35:15.004Z,14.20
2022-12-04T01:36:14.633Z,14.20
2022-12-04T01:37:14.632Z,14.40
2022-12-04T01:38:14.971Z,13.20
2022-12-04T01:39:14.984Z,13.50
2022-12-04T01:40:14.572Z,13.40
2022-12-04T01:41:14.590Z,13.40
2022-12-04T01:42:14.791Z,13.70
2022-12-04T01:43:15.001Z,13.80
2022-12-04T01:44:14.541Z,14.00
2022-12-04T01:45:14.541Z,14.80
2022-12-04T01:46:14.907Z,14.40
2022-12-04T01:47:14.840Z,14.10
2022-12-04T01:48:14.519Z,14.10
2022-12-04T01:49:14.538Z,14.20
2022-12-04T01:50:15.048Z,14.40
2022-12-04T01:51:14.548Z,14.10
2022-12-04T01:52:15.067Z,13.10
2022-12-04T01:53:15.068Z,14.70
2022-12-04T01:54:14.479Z,14.70
2022-12-04T01:55:15.086Z,13.30
2022-12-04T01:56:14.487Z,14.10
2022-12-04T01:57:15.102Z,13.70
2022-12-04T01:58:14.458Z,14.00
2022-12-04T01:59:14.704Z,14.20
2022-12-04T02:00:15.118Z,14.90
2022-12-04T02:01:15.219Z,14.80
2022-12-04T02:02:15.415Z,14.60
2022-12-04T02:03:14.490Z,13.60
2022-12-04T02:04:14.740Z,14.70
2022-12-04T02:05:14.544Z,14.40
2022-12-04T02:06:14.544Z,14.30
2022-12-04T02:07:14.553Z,14.30
2022-12-04T02:08:14.466Z,14.30
2022-12-04T02:09:14.562Z,14.40
2022-12-04T02:10:14.400Z,13.50
2022-12-04T02:11:14.452Z,14.60
2022-12-04T02:12:14.406Z,15.10
2022-12-04T02:13:14.414Z,14.50
2022-12-04T02:14:14.813Z,13.90
2022-12-04T02:15:14.402Z,13.60
2022-12-04T02:16:14.665Z,13.00
2022-12-04T02:17:15.040Z,13.90
2022-12-04T02:18:14.341Z,14.30
2022-12-04T02:19:14.359Z,14.20
2022-12-04T02:20:14.642Z,13.30
2022-12-04T02:21:14.649Z,13.90
2022-12-04T02:22:14.340Z,13.90
2022-12-04T02:23:14.418Z,13.70
2022-12-04T02:24:15.081Z,13.50
2022-12-04T02:25:14.297Z,14.10
2022-12-04T02:26:15.095Z,13.60
2022-12-04T02:27:15.193Z,12.90
2022-12-04T02:28:14.299Z,13.00
2022-12-04T02:29:14.417Z,12.70
2022-12-04T02:30:14.709Z,13.10
2022-12-04T02:31:14.973Z,12.30
2022-12-04T02:32:14.326Z,12.50
2022-12-04T02:33:15.127Z,12.30
2022-12-04T02:34:14.327Z,12.10
2022-12-04T02:35:14.384Z,12.10
2022-12-04T02:36:15.085Z,11.20
2022-12-04T02:37:15.245Z,11.20
2022-12-04T02:38:15.153Z,10.90
2022-12-04T02:39:14.455Z,10.90
2022-12-04T02:40:15.214Z,9.80
2022-12-04T02:41:14.199Z,9.90
2022-12-04T02:42:14.192Z,9.40
2022-12-04T02:43:14.198Z,9.60
2022-12-04T02:44:14.184Z,8.70
2022-12-04T02:45:14.240Z,9.30
2022-12-04T02:46:14.655Z,8.70
2022-12-04T02:47:14.310Z,9.40
2022-12-04T02:48:14.211Z,9.20
2022-12-04T02:49:14.319Z,9.30
2022-12-04T02:50:14.639Z,9.10
2022-12-04T02:51:14.432Z,8.80
2022-12-04T02:52:14.649Z,9.10
2022-12-04T02:53:14.671Z,9.10
2022-12-04T02:54:14.459Z,9.80
2022-12-04T02:55:14.668Z,8.90
2022-12-04T02:56:14.261Z,8.40
2022-12-04T02:57:14.134Z,9.30
2022-12-04T02:58:14.477Z,9.60
2022-12-04T02:59:14.378Z,9.40
2022-12-04T03:00:14.697Z,9.10
2022-12-04T03:01:14.369Z,8.80
2022-12-04T03:02:14.564Z,9.10
2022-12-04T03:03:15.066Z,9.20
2022-12-04T03:04:14.261Z,9.30
2022-12-04T03:05:14.046Z,9.00
2022-12-04T03:06:14.325Z,8.50
2022-12-04T03:07:15.268Z,9.10
2022-12-04T03:08:15.172Z,9.40
2022-12-04T03:09:14.394Z,9.00
2022-12-04T03:10:14.143Z,9.10
2022-12-04T03:11:14.365Z,8.70
2022-12-04T03:12:14.963Z,9.20
2022-12-04T03:13:13.996Z,9.30
2022-12-04T03:14:14.793Z,9.20
2022-12-04T03:15:14.931Z,8.70
2022-12-04T03:16:14.884Z,8.90
2022-12-04T03:17:14.048Z,9.40
2022-12-04T03:18:14.602Z,8.50
2022-12-04T03:19:14.220Z,9.10
2022-12-04T03:20:14.631Z,8.90
2022-12-04T03:21:14.018Z,9.30
2022-12-04T03:22:14.033Z,9.30
2022-12-04T03:23:14.048Z,9.30
2022-12-04T03:24:13.930Z,8.80
2022-12-04T03:25:14.256Z,8.70
2022-12-04T03:26:14.266Z,9.00
2022-12-04T03:27:13.909Z,8.60
2022-12-04T03:28:14.273Z,9.00
2022-12-04T03:29:14.365Z,8.60
2022-12-04T03:30:14.478Z,8.40
2022-12-04T03:31:14.333Z,8.60
2022-12-04T03:32:13.897Z,8.80
2022-12-04T03:33:14.308Z,9.50
2022-12-04T03:34:14.518Z,9.70
2022-12-04T03:35:14.538Z,9.00
2022-12-04T03:36:13.906Z,9.20
2022-12-04T03:37:13.932Z,8.80
2022-12-04T03:38:14.746Z,8.80
2022-12-04T03:39:15.286Z,8.40
2022-12-04T03:40:13.934Z,9.10
2022-12-04T03:41:14.145Z,9.10
2022-12-04T03:42:14.364Z,8.80
2022-12-04T03:43:14.804Z,8.60
2022-12-04T03:44:14.369Z,9.30
2022-12-04T03:45:14.113Z,8.50
2022-12-04T03:46:14.010Z,8.10
2022-12-04T03:47:13.925Z,8.90
2022-12-04T03:48:15.824Z,9.30
2022-12-04T03:49:15.222Z,8.80
2022-12-04T03:50:13.836Z,8.60
2022-12-04T03:51:13.799Z,8.50
2022-12-04T03:52:14.713Z,8.40
2022-12-04T03:53:14.011Z,8.80
2022-12-04T03:54:14.431Z,8.70
2022-12-04T03:55:14.031Z,8.40
2022-12-04T03:56:14.051Z,8.90
2022-12-04T03:57:13.921Z,9.20
2022-12-04T03:58:13.738Z,9.20
2022-12-04T03:59:13.707Z,8.60
2022-12-04T04:00:13.863Z,9.80
2022-12-04T04:01:13.769Z,8.70
2022-12-04T04:02:13.941Z,8.60
2022-12-04T04:03:13.881Z,9.50
2022-12-04T04:04:13.917Z,9.10
2022-12-04T04:05:14.104Z,9.90
2022-12-04T04:06:13.699Z,9.10
2022-12-04T04:07:13.700Z,8.80
2022-12-04T04:08:14.020Z,9.20
2022-12-04T04:09:14.156Z,9.00
2022-12-04T04:10:14.342Z,10.00
2022-12-04T04:11:13.726Z,8.80
2022-12-04T04:12:13.745Z,9.50
2022-12-04T04:13:13.734Z,9.70
2022-12-04T04:14:14.355Z,9.20
2022-12-04T04:15:13.610Z,9.90
2022-12-04T04:16:13.648Z,9.90
2022-12-04T04:18:39.568Z,9.80
2022-12-04T04:19:39.578Z,10.10
2022-12-04T04:20:39.577Z,9.60
2022-12-04T04:21:39.595Z,10.00
2022-12-04T04:22:39.597Z,9.80
2022-12-04T04:23:39.605Z,9.50
2022-12-04T04:24:39.654Z,8.90
2022-12-04T04:25:39.666Z,9.80
2022-12-04T04:26:39.824Z,10.10
2022-12-04T04:27:39.843Z,9.70
2022-12-04T04:28:39.495Z,10.10
2022-12-04T04:29:39.696Z,9.10
2022-12-04T04:30:39.913Z,10.20
2022-12-04T04:31:39.935Z,10.20
2022-12-04T04:32:39.880Z,9.90
2022-12-04T04:33:39.670Z,9.70
2022-12-04T04:34:39.471Z,10.50
2022-12-04T04:35:39.481Z,10.00
2022-12-04T04:36:39.490Z,9.60
2022-12-04T04:37:39.442Z,10.10
2022-12-04T04:38:39.456Z,9.20
2022-12-04T04:39:39.512Z,9.20
2022-12-04T04:40:39.554Z,9.20
2022-12-04T04:41:39.729Z,9.60
2022-12-04T04:42:39.560Z,10.40
2022-12-04T04:43:39.738Z,9.70
2022-12-04T04:44:39.745Z,10.00
2022-12-04T04:45:39.768Z,9.90
2022-12-04T04:46:39.587Z,9.90
2022-12-04T04:47:39.598Z,9.60
2022-12-04T04:48:39.384Z,10.60
2022-12-04T04:49:39.980Z,9.80
2022-12-04T04:50:39.985Z,9.80
2022-12-04T04:51:39.424Z,10.20
2022-12-04T04:52:39.838Z,9.80
2022-12-04T04:53:40.206Z,10.50
2022-12-04T04:54:40.215Z,10.10
2022-12-04T04:55:40.145Z,10.60
2022-12-04T04:56:39.405Z,10.40
2022-12-04T04:57:39.417Z,10.50
2022-12-04T04:58:40.375Z,11.20
2022-12-04T04:59:39.684Z,10.20
2022-12-04T05:00:40.044Z,10.40
2022-12-04T05:01:40.591Z,9.50
2022-12-04T05:02:39.467Z,10.30
2022-12-04T05:03:39.272Z,9.90
2022-12-04T05:04:39.453Z,10.90
2022-12-04T05:05:39.514Z,10.80
2022-12-04T05:06:39.475Z,10.20
2022-12-04T05:07:39.407Z,10.80
2022-12-04T05:08:39.329Z,10.20
2022-12-04T05:09:52.835Z,10.90
2022-12-04T05:10:40.241Z,11.10
2022-12-04T05:11:39.229Z,10.50
2022-12-04T05:12:39.235Z,10.90
2022-12-04T05:13:39.372Z,9.70
2022-12-04T05:14:39.208Z,11.10
2022-12-04T05:15:39.244Z,10.20
2022-12-04T05:16:39.275Z,11.50
2022-12-04T05:17:39.343Z,10.90
2022-12-04T05:18:39.351Z,10.90
2022-12-04T05:19:39.360Z,10.70
2022-12-04T05:20:39.208Z,10.50
2022-12-04T05:21:39.424Z,10.40
2022-12-04T05:22:39.582Z,10.70
2022-12-04T05:23:39.175Z,10.80
2022-12-04T05:24:39.590Z,10.40
2022-12-04T05:25:39.395Z,11.20
2022-12-04T05:26:39.396Z,10.70
2022-12-04T05:27:39.607Z,10.80
2022-12-04T05:28:39.825Z,10.90
2022-12-04T05:29:39.827Z,10.60
2022-12-04T05:30:39.215Z,10.70
2022-12-04T05:31:39.197Z,10.70
2022-12-04T05:32:39.925Z,11.00
2022-12-04T05:33:40.065Z,10.10
2022-12-04T05:34:39.451Z,11.20
2022-12-04T05:35:39.175Z,10.20
2022-12-04T05:36:40.054Z,10.20
2022-12-04T05:37:39.125Z,10.60
2022-12-04T05:38:39.472Z,9.70
2022-12-04T05:39:40.013Z,10.20
2022-12-04T05:40:39.141Z,9.90
2022-12-04T05:41:39.701Z,10.30
2022-12-04T05:42:39.971Z,10.70
2022-12-04T05:43:39.163Z,10.80
2022-12-04T05:44:39.162Z,10.80
2022-12-04T05:45:39.011Z,10.40
2022-12-04T05:46:39.081Z,10.20
2022-12-04T05:47:39.019Z,11.00
2022-12-04T05:48:39.131Z,11.00
2022-12-04T05:49:39.051Z,11.10
2022-12-04T05:50:39.068Z,10.80
2022-12-04T05:51:38.982Z,10.40
2022-12-04T05:52:38.980Z,11.50
2022-12-04T05:53:38.962Z,10.40
2022-12-04T05:54:38.948Z,10.70
2022-12-04T05:55:38.970Z,10.60
2022-12-04T05:56:38.929Z,10.70
2022-12-04T05:57:38.937Z,11.50
2022-12-04T05:58:38.914Z,10.50
2022-12-04T05:59:38.916Z,11.40
2022-12-04T06:00:38.905Z,9.50
2022-12-04T06:01:39.246Z,9.60
2022-12-04T06:02:39.043Z,10.00
2022-12-04T06:03:39.281Z,10.60
2022-12-04T06:04:39.110Z,10.80
2022-12-04T06:05:38.886Z,11.00
2022-12-04T06:06:39.254Z,9.80
2022-12-04T06:07:39.334Z,10.60
2022-12-04T06:08:39.283Z,10.50
2022-12-04T06:09:39.054Z,10.30
2022-12-04T06:10:39.062Z,10.50
2022-12-04T06:11:38.862Z,11.10
2022-12-04T06:12:39.333Z,10.20
2022-12-04T06:13:38.951Z,11.20
2022-12-04T06:14:39.895Z,10.40
2022-12-04T06:15:38.838Z,10.70
2022-12-04T06:16:38.880Z,10.20
2022-12-04T06:17:38.810Z,10.90
2022-12-04T06:18:38.920Z,10.40
2022-12-04T06:19:38.820Z,10.60
2022-12-04T06:20:39.777Z,10.70
2022-12-04T06:21:38.782Z,11.30
2022-12-04T06:22:38.771Z,10.40
2022-12-04T06:23:38.819Z,10.80
2022-12-04T06:24:38.758Z,11.60
2022-12-04T06:25:38.759Z,10.60
2022-12-04T06:26:51.973Z,10.80
2022-12-04T06:27:38.847Z,11.40
2022-12-04T06:28:38.856Z,10.60
2022-12-04T06:29:38.735Z,11.20
2022-12-04T06:30:38.726Z,11.20
2022-12-04T06:31:38.782Z,10.80
2022-12-04T06:32:38.707Z,11.00
2022-12-04T06:33:38.716Z,11.60
2022-12-04T06:34:38.697Z,11.00
2022-12-04T06:35:38.696Z,11.20
2022-12-04T06:36:38.835Z,11.60
2022-12-04T06:37:38.838Z,10.70
2022-12-04T06:38:38.685Z,10.90
2022-12-04T06:39:38.890Z,11.50
2022-12-04T06:40:38.655Z,11.80
2022-12-04T06:41:38.666Z,11.30
2022-12-04T06:42:38.666Z,10.70
2022-12-04T06:43:38.703Z,11.80
2022-12-04T06:44:38.635Z,12.40
2022-12-04T06:45:38.912Z,11.50
2022-12-04T06:46:43.518Z,11.30
2022-12-04T06:47:38.626Z,12.10
2022-12-04T06:48:38.723Z,11.60
2022-12-04T06:49:38.601Z,11.90
2022-12-04T06:50:38.596Z,11.80
2022-12-04T06:51:38.600Z,12.30
2022-12-04T06:52:38.722Z,11.80
2022-12-04T06:53:38.854Z,11.40
2022-12-04T06:54:39.051Z,12.00
2022-12-04T06:55:39.054Z,11.90
2022-12-04T06:56:39.050Z,12.20
2022-12-04T06:57:38.565Z,11.60
2022-12-04T06:58:39.060Z,11.80
2022-12-04T06:59:39.070Z,12.60
2022-12-04T07:00:38.579Z,12.30
2022-12-04T07:01:38.576Z,12.10
2022-12-04T07:02:38.912Z,12.80
2022-12-04T07:03:39.208Z,12.50
2022-12-04T07:04:38.617Z,13.70
2022-12-04T07:05:38.695Z,13.00
2022-12-04T07:06:38.907Z,11.80
2022-12-04T07:07:38.898Z,12.30
2022-12-04T07:08:39.235Z,13.10
2022-12-04T07:09:39.138Z,12.40
2022-12-04T07:10:38.477Z,13.60
2022-12-04T07:11:38.535Z,12.60
2022-12-04T07:12:38.482Z,13.30
2022-12-04T07:13:38.551Z,13.10
2022-12-04T07:14:38.664Z,13.20
2022-12-04T07:15:38.672Z,12.20
2022-12-04T07:16:41.466Z,11.70
2022-12-04T07:17:38.784Z,11.60
2022-12-04T07:18:38.795Z,12.80
2022-12-04T07:19:38.693Z,12.70
2022-12-04T07:20:38.802Z,12.20
2022-12-04T07:21:38.423Z,12.00
2022-12-04T07:22:38.427Z,12.50
2022-12-04T07:23:39.030Z,13.30
2022-12-04T07:24:38.620Z,13.10
2022-12-04T07:25:39.143Z,12.80
2022-12-04T07:26:38.390Z,12.40
2022-12-04T07:27:38.957Z,13.80
2022-12-04T07:28:39.060Z,13.60
2022-12-04T07:29:39.188Z,13.20
2022-12-04T07:30:38.361Z,13.60
2022-12-04T07:31:38.453Z,13.20
2022-12-04T07:32:38.568Z,13.40
2022-12-04T07:33:38.887Z,13.80
2022-12-04T07:34:39.217Z,13.80
2022-12-04T07:35:39.333Z,13.00
2022-12-04T07:36:38.320Z,13.00
2022-12-04T07:37:38.403Z,12.40
2022-12-04T07:38:39.360Z,13.70
2022-12-04T07:39:38.416Z,14.10
2022-12-04T07:40:38.726Z,12.70
2022-12-04T07:41:38.328Z,12.80
2022-12-04T07:42:38.951Z,13.00
2022-12-04T07:43:39.117Z,12.90
2022-12-04T07:44:38.276Z,12.50
2022-12-04T07:45:38.573Z,13.10
2022-12-04T07:46:38.564Z,11.90
2022-12-04T07:47:38.873Z,12.60
2022-12-04T07:48:38.280Z,13.10
2022-12-04T07:49:38.272Z,12.30
2022-12-04T07:50:38.243Z,12.00
2022-12-04T07:51:38.233Z,12.30
2022-12-04T07:52:38.230Z,12.70
2022-12-04T07:53:38.214Z,12.60
2022-12-04T07:54:38.231Z,11.70
2022-12-04T07:55:38.212Z,11.90
2022-12-04T07:56:38.527Z,12.50
2022-12-04T07:57:38.242Z,12.50
2022-12-04T07:58:38.651Z,13.00
2022-12-04T07:59:38.240Z,12.70
2022-12-04T08:00:38.450Z,12.70
2022-12-04T08:01:38.814Z,13.40
2022-12-04T08:02:38.161Z,12.50
2022-12-04T08:03:43.489Z,13.30
2022-12-04T08:04:38.249Z,13.70
2022-12-04T08:05:38.577Z,12.40
2022-12-04T08:06:38.977Z,12.60
2022-12-04T08:07:38.644Z,12.30
2022-12-04T08:08:38.127Z,12.60
2022-12-04T08:09:39.138Z,12.40
2022-12-04T08:10:39.144Z,13.40
2022-12-04T08:11:38.206Z,12.60
2022-12-04T08:12:38.325Z,13.10
2022-12-04T08:13:38.336Z,12.30
2022-12-04T08:14:39.233Z,13.10
2022-12-04T08:15:38.559Z,12.20
2022-12-04T08:16:38.196Z,12.70
2022-12-04T08:17:38.097Z,12.90
2022-12-04T08:18:39.085Z,12.60
2022-12-04T08:19:38.170Z,11.60
2022-12-04T08:20:38.264Z,12.70
2022-12-04T08:21:38.385Z,11.80
2022-12-04T08:22:38.400Z,12.40
2022-12-04T08:23:38.482Z,12.60
2022-12-04T08:24:38.819Z,12.50
2022-12-04T08:25:38.703Z,11.80
2022-12-04T08:26:38.831Z,11.60
2022-12-04T08:27:38.022Z,11.30
2022-12-04T08:28:38.047Z,11.50
2022-12-04T08:29:38.031Z,12.20
2022-12-04T08:30:38.084Z,12.20
2022-12-04T08:31:38.202Z,11.10
2022-12-04T08:32:38.071Z,11.40
2022-12-04T08:33:38.149Z,11.80
2022-12-04T08:34:37.982Z,11.10
2022-12-04T08:35:37.950Z,11.30
2022-12-04T08:36:38.381Z,11.10
2022-12-04T08:37:38.089Z,11.70
2022-12-04T08:38:37.961Z,11.30
2022-12-04T08:39:37.980Z,10.80
2022-12-04T08:40:38.111Z,11.20
2022-12-04T08:41:38.531Z,10.70
2022-12-04T08:42:38.417Z,12.00
2022-12-04T08:43:38.738Z,11.90
2022-12-04T08:44:38.757Z,11.10
2022-12-04T08:45:38.757Z,11.20
2022-12-04T08:46:38.177Z,11.40
2022-12-04T08:47:38.366Z,11.70
2022-12-04T08:48:38.065Z,11.70
2022-12-04T08:49:38.677Z,11.70
2022-12-04T08:50:37.859Z,11.90
2022-12-04T08:51:37.855Z,11.30
2022-12-04T08:52:37.985Z,11.60
2022-12-04T08:53:38.691Z,10.90
2022-12-04T08:54:38.494Z,11.60
2022-12-04T08:55:38.489Z,11.60
2022-12-04T08:56:37.842Z,12.20
2022-12-04T08:57:37.824Z,11.20
2022-12-04T08:58:38.876Z,11.40
2022-12-04T08:59:38.035Z,11.00
2022-12-04T09:00:38.130Z,11.50
2022-12-04T09:01:38.282Z,11.30
2022-12-04T09:02:38.183Z,11.60
2022-12-04T09:03:38.618Z,11.80
2022-12-04T09:04:38.166Z,12.50
2022-12-04T09:05:37.771Z,11.70
2022-12-04T09:06:37.772Z,11.40
2022-12-04T09:07:37.813Z,11.50
2022-12-04T09:08:37.787Z,11.50
2022-12-04T09:09:37.793Z,11.20
2022-12-04T09:10:37.809Z,10.80
2022-12-04T09:11:37.919Z,11.60
2022-12-04T09:12:38.021Z,12.20
2022-12-04T09:13:38.002Z,11.30
2022-12-04T09:14:38.018Z,11.20
2022-12-04T09:15:37.841Z,11.50
2022-12-04T09:16:38.152Z,11.00
2022-12-04T09:17:37.747Z,11.00
2022-12-04T09:18:38.036Z,10.40
2022-12-04T09:19:37.699Z,10.60
2022-12-04T09:20:38.394Z,11.20
2022-12-04T09:21:38.166Z,10.50
2022-12-04T09:23:02.220Z,10.90
2022-12-04T09:23:38.268Z,11.00
2022-12-04T09:24:38.417Z,10.10
2022-12-04T09:25:37.821Z,10.50
2022-12-04T09:26:37.635Z,11.40
2022-12-04T09:27:37.814Z,10.90
2022-12-04T09:28:38.517Z,10.50
2022-12-04T09:29:38.425Z,11.00
2022-12-04T09:30:38.132Z,10.90
2022-12-04T09:31:38.535Z,10.40
2022-12-04T09:32:38.642Z,10.40
2022-12-04T09:33:38.543Z,11.80
2022-12-04T09:34:37.929Z,10.80
2022-12-04T09:35:37.673Z,11.10
2022-12-04T09:36:37.580Z,11.20
2022-12-04T09:37:38.294Z,11.10
2022-12-04T09:38:37.971Z,10.70
2022-12-04T09:39:37.560Z,11.10
2022-12-04T09:40:38.488Z,10.00
2022-12-04T09:41:37.930Z,10.60
2022-12-04T09:42:37.571Z,10.70
2022-12-04T09:43:37.521Z,10.50
2022-12-04T09:44:37.528Z,10.90
2022-12-04T09:45:37.529Z,10.60
2022-12-04T09:46:37.785Z,10.90
2022-12-04T09:47:37.601Z,12.00
2022-12-04T09:48:37.609Z,11.20
2022-12-04T09:49:37.789Z,11.30
2022-12-04T09:50:37.577Z,12.20
2022-12-04T09:51:37.576Z,11.90
2022-12-04T09:52:37.588Z,11.30
2022-12-04T09:53:37.587Z,11.00
2022-12-04T09:54:37.600Z,10.80
2022-12-04T09:55:37.455Z,11.40
2022-12-04T09:56:37.613Z,11.60
2022-12-04T09:57:37.637Z,10.80
2022-12-04T09:58:37.624Z,11.00
2022-12-04T09:59:37.428Z,10.80
2022-12-04T10:00:37.434Z,10.40
2022-12-04T10:01:37.454Z,10.70
2022-12-04T10:02:37.574Z,10.50
2022-12-04T10:03:37.552Z,10.70
2022-12-04T10:04:37.384Z,10.30
2022-12-04T10:05:38.292Z,10.30
2022-12-04T10:06:37.475Z,10.30
2022-12-04T10:07:37.425Z,10.00
2022-12-04T10:08:37.483Z,10.60
2022-12-04T10:09:37.530Z,9.50
2022-12-04T10:10:37.371Z,9.90
2022-12-04T10:11:37.373Z,10.20
2022-12-04T10:12:37.351Z,10.30
2022-12-04T10:13:37.402Z,9.80
2022-12-04T10:14:37.529Z,10.50
2022-12-04T10:15:37.453Z,10.10
2022-12-04T10:16:37.491Z,9.60
2022-12-04T10:17:37.485Z,10.10
2022-12-04T10:18:37.390Z,11.00
2022-12-04T10:19:37.469Z,10.20
2022-12-04T10:20:37.496Z,10.70
2022-12-04T10:21:37.497Z,10.50
2022-12-04T10:22:37.368Z,10.60
2022-12-04T10:23:37.257Z,10.20
2022-12-04T10:24:37.257Z,10.50
2022-12-04T10:25:37.268Z,10.00
2022-12-04T10:26:37.247Z,10.20
2022-12-04T10:27:37.237Z,10.40
2022-12-04T10:28:37.596Z,11.10
2022-12-04T10:29:37.259Z,10.20
2022-12-04T10:30:37.236Z,10.20
2022-12-04T10:31:37.276Z,10.00
2022-12-04T10:32:37.239Z,10.60
2022-12-04T10:33:37.196Z,10.00
2022-12-04T10:34:42.520Z,10.00
2022-12-04T10:35:37.201Z,10.70
2022-12-04T10:36:37.280Z,10.70
2022-12-04T10:37:37.288Z,10.20
2022-12-04T10:38:37.286Z,10.10
2022-12-04T10:39:37.166Z,10.70
2022-12-04T10:40:37.293Z,10.50
2022-12-04T10:41:37.152Z,10.10
2022-12-04T10:42:37.133Z,10.40
2022-12-04T10:43:37.132Z,10.10
2022-12-04T10:44:37.142Z,10.30
2022-12-04T10:45:37.233Z,10.40
2022-12-04T10:46:40.556Z,10.60
2022-12-04T10:47:37.102Z,10.90
2022-12-04T10:48:37.151Z,10.90
2022-12-04T10:49:37.151Z,10.20
2022-12-04T10:50:37.190Z,10.70
2022-12-04T10:51:37.083Z,10.30
2022-12-04T10:52:37.078Z,10.40
2022-12-04T10:53:37.090Z,10.40
2022-12-04T10:54:37.220Z,10.10
2022-12-04T10:55:37.222Z,10.70
2022-12-04T10:56:37.072Z,10.00
2022-12-04T10:57:37.049Z,10.00
2022-12-04T10:58:37.043Z,9.30
2022-12-04T10:59:37.034Z,10.30
2022-12-04T11:00:37.036Z,10.50
2022-12-04T11:01:37.279Z,9.70
2022-12-04T11:02:37.249Z,10.00
2022-12-04T11:03:37.374Z,10.50
2022-12-04T11:04:37.004Z,9.80
2022-12-04T11:05:37.003Z,9.90
2022-12-04T11:06:37.077Z,10.80
2022-12-04T11:07:37.145Z,10.20
2022-12-04T11:08:36.975Z,10.10
2022-12-04T11:09:36.966Z,10.20
2022-12-04T11:10:37.556Z,10.00
2022-12-04T11:11:36.985Z,9.50
2022-12-04T11:12:36.953Z,9.90
2022-12-04T11:13:37.343Z,9.20
2022-12-04T11:14:37.536Z,10.00
2022-12-04T11:15:36.933Z,10.20
2022-12-04T11:16:37.612Z,10.20
2022-12-04T11:17:37.566Z,9.50
2022-12-04T11:18:37.074Z,9.80
2022-12-04T11:19:37.153Z,9.90
2022-12-04T11:20:37.360Z,9.70
2022-12-04T11:21:37.599Z,9.40
2022-12-04T11:22:37.590Z,9.30
2022-12-04T11:23:37.620Z,9.40
2022-12-04T11:24:37.170Z,9.00
2022-12-04T11:25:37.605Z,9.20
2022-12-04T11:26:37.608Z,8.40
2022-12-04T11:27:37.399Z,8.80
2022-12-04T11:28:44.034Z,8.80
2022-12-04T11:29:37.642Z,8.70
2022-12-04T11:30:37.421Z,9.00
2022-12-04T11:31:37.071Z,9.00
2022-12-04T11:32:37.644Z,8.60
2022-12-04T11:33:37.281Z,8.60
2022-12-04T11:34:36.856Z,9.30
2022-12-04T11:35:36.857Z,9.40
2022-12-04T11:36:36.848Z,9.50
2022-12-04T11:37:41.957Z,9.60
2022-12-04T11:38:36.877Z,9.70
2022-12-04T11:39:37.110Z,9.50
2022-12-04T11:40:37.117Z,9.30
2022-12-04T11:41:37.100Z,9.10
2022-12-04T11:42:36.916Z,9.30
2022-12-04T11:43:37.117Z,9.40
2022-12-04T11:44:36.792Z,9.30
2022-12-04T11:45:37.325Z,8.70
2022-12-04T11:46:36.856Z,8.60
2022-12-04T11:47:36.747Z,9.20
2022-12-04T11:48:37.364Z,9.10
2022-12-04T11:49:42.218Z,9.60
2022-12-04T11:50:36.744Z,9.40
2022-12-04T11:51:36.750Z,9.20
2022-12-04T11:52:37.581Z,9.70
2022-12-04T11:53:36.965Z,8.80
2022-12-04T11:54:36.973Z,9.60
2022-12-04T11:55:36.773Z,8.50
2022-12-04T11:56:37.621Z,8.80
2022-12-04T11:57:37.402Z,8.80
2022-12-04T11:58:36.801Z,8.90
2022-12-04T11:59:37.418Z,9.00
2022-12-04T12:00:37.491Z,9.80
2022-12-04T12:01:37.276Z,10.00
2022-12-04T12:02:36.786Z,9.50
2022-12-04T12:03:37.533Z,10.20
2022-12-04T12:04:36.639Z,9.70
2022-12-04T12:05:36.853Z,10.10
2022-12-04T12:06:37.141Z,10.10
2022-12-04T12:07:37.324Z,9.50
2022-12-04T12:08:37.477Z,9.80
2022-12-04T12:09:36.868Z,10.00
2022-12-04T12:10:43.007Z,9.80
2022-12-04T12:11:37.457Z,9.20
2022-12-04T12:12:37.507Z,8.30
2022-12-04T12:13:36.722Z,8.60
2022-12-04T12:14:36.707Z,8.90
2022-12-04T12:15:36.737Z,9.00
2022-12-04T12:16:36.819Z,9.10
2022-12-04T12:17:36.806Z,9.00
2022-12-04T12:18:36.960Z,9.30
2022-12-04T12:19:36.945Z,8.70
2022-12-04T12:20:36.958Z,8.60
2022-12-04T12:21:36.754Z,9.10
2022-12-04T12:22:36.565Z,8.80
2022-12-04T12:23:36.783Z,9.40
2022-12-04T12:24:36.516Z,8.10
2022-12-04T12:25:36.813Z,8.50
2022-12-04T12:26:36.815Z,8.80
2022-12-04T12:27:36.534Z,8.30
2022-12-04T12:28:36.836Z,8.00
2022-12-04T12:31:05.924Z,8.70
2022-12-04T12:32:02.569Z,8.50
2022-12-04T12:33:03.348Z,8.70
2022-12-04T12:34:02.584Z,9.00
2022-12-04T12:35:02.942Z,8.70
2022-12-04T12:36:03.156Z,9.00
2022-12-04T12:37:02.403Z,8.70
2022-12-04T12:38:03.116Z,9.50
2022-12-04T12:39:02.866Z,8.80
2022-12-04T12:40:03.074Z,8.90
2022-12-04T12:41:03.344Z,8.90
2022-12-04T12:42:03.243Z,8.60
2022-12-04T12:43:02.760Z,9.20
2022-12-04T12:44:03.002Z,8.60
2022-12-04T12:45:02.803Z,8.50
2022-12-04T12:46:02.876Z,8.70
2022-12-04T12:47:02.332Z,8.70
2022-12-04T12:48:02.340Z,8.40
2022-12-04T12:49:02.321Z,8.30
2022-12-04T12:50:02.363Z,8.30
2022-12-04T12:51:28.473Z,8.80
2022-12-04T12:52:02.446Z,8.80
2022-12-04T12:53:02.450Z,8.50
2022-12-04T12:54:02.462Z,8.60
2022-12-04T12:55:02.571Z,9.00
2022-12-04T12:56:02.579Z,9.10
2022-12-04T12:57:02.680Z,9.00
2022-12-04T12:58:02.729Z,9.20
2022-12-04T12:59:02.281Z,9.40
2022-12-04T13:00:02.809Z,9.40
2022-12-04T13:01:02.722Z,9.80
2022-12-04T13:02:02.885Z,9.90
2022-12-04T13:03:03.025Z,10.00
2022-12-04T13:04:02.930Z,9.70
2022-12-04T13:05:02.559Z,9.00